createdAt,value
2017-04-16T00:00:07.014Z,7.40
2017-04-16T00:01:06.562Z,7.40
2017-04-16T00:02:06.167Z,7.40
2017-04-16T00:03:05.731Z,7.40
2017-04-16T00:04:05.297Z,7.40
2017-04-16T00:05:04.859Z,7.40
2017-04-16T00:06:04.401Z,7.40
2017-04-16T00:07:04.124Z,7.40
2017-04-16T00:08:03.863Z,7.40
2017-04-16T00:09:04.479Z,7.40
2017-04-16T00:10:04.371Z,7.40
2017-04-16T00:11:03.985Z,7.50
2017-04-16T00:12:03.563Z,7.50
2017-04-16T00:13:03.119Z,7.50
2017-04-16T00:14:03.051Z,7.60
2017-04-16T00:15:02.633Z,7.60
2017-04-16T00:16:03.136Z,7.50
2017-04-16T00:17:02.715Z,7.60
2017-04-16T00:18:02.294Z,7.50
2017-04-16T00:19:02.031Z,7.60
2017-04-16T00:20:01.583Z,7.60
2017-04-16T00:21:01.543Z,7.60
2017-04-16T00:22:01.092Z,7.60
2017-04-16T00:23:00.643Z,7.50
2017-04-16T00:24:00.260Z,7.50
2017-04-16T00:24:59.831Z,7.50
2017-04-16T00:25:59.387Z,7.50
2017-04-16T00:26:59.448Z,7.50
2017-04-16T00:27:59.752Z,7.50
2017-04-16T00:28:59.368Z,7.60
2017-04-16T00:29:58.954Z,7.60
2017-04-16T00:30:59.263Z,7.50
2017-04-16T00:31:59.546Z,7.50
2017-04-16T00:32:59.120Z,7.50
2017-04-16T00:33:58.675Z,7.50
2017-04-16T00:34:59.203Z,7.50
2017-04-16T00:35:59.505Z,7.50
2017-04-16T00:36:59.053Z,7.50
2017-04-16T00:37:58.900Z,7.50
2017-04-16T00:38:59.360Z,7.40
2017-04-16T00:39:59.367Z,7.40
2017-04-16T00:40:58.912Z,7.40
2017-04-16T00:41:58.453Z,7.40
2017-04-16T00:42:58.363Z,7.30
2017-04-16T00:43:57.995Z,7.30
2017-04-16T00:44:57.544Z,7.30
2017-04-16T00:45:57.317Z,7.20
2017-04-16T00:46:57.316Z,7.20
2017-04-16T00:47:56.992Z,7.20
2017-04-16T00:48:56.527Z,7.20
2017-04-16T00:49:56.087Z,7.20
2017-04-16T00:50:55.655Z,7.20
2017-04-16T00:51:55.590Z,7.20
2017-04-16T00:52:55.128Z,7.10
2017-04-16T00:53:55.642Z,7.00
2017-04-16T00:54:55.180Z,7.10
2017-04-16T00:55:54.899Z,7.00
2017-04-16T00:56:54.433Z,7.00
2017-04-16T00:57:53.978Z,7.00
2017-04-16T00:58:53.601Z,7.00
2017-04-16T00:59:53.159Z,7.00
2017-04-16T01:00:58.024Z,7.00
2017-04-16T01:03:03.108Z,7.00
2017-04-16T01:04:03.020Z,7.10
2017-04-16T01:05:02.915Z,7.00
2017-04-16T01:06:02.890Z,7.10
2017-04-16T01:07:02.428Z,7.10
2017-04-16T01:08:02.099Z,7.10
2017-04-16T01:09:01.615Z,7.10
2017-04-16T01:10:01.173Z,7.10
2017-04-16T01:11:00.731Z,7.10
2017-04-16T01:12:00.290Z,7.10
2017-04-16T01:13:00.579Z,7.10
2017-04-16T01:14:00.131Z,7.10
2017-04-16T01:14:59.771Z,7.10
2017-04-16T01:15:59.364Z,7.10
2017-04-16T01:16:58.920Z,7.10
2017-04-16T01:17:59.215Z,7.00
2017-04-16T01:18:59.518Z,7.00
2017-04-16T01:19:59.075Z,7.00
2017-04-16T01:20:58.631Z,7.00
2017-04-16T01:21:58.232Z,7.00
2017-04-16T01:22:58.483Z,7.00
2017-04-16T01:23:58.307Z,7.00
2017-04-16T01:24:57.847Z,7.00
2017-04-16T01:25:57.374Z,7.00
2017-04-16T01:26:56.967Z,7.00
2017-04-16T01:27:57.248Z,7.00
2017-04-16T01:28:56.827Z,7.00
2017-04-16T01:29:56.746Z,7.00
2017-04-16T01:30:56.331Z,7.00
2017-04-16T01:31:55.889Z,7.00
2017-04-16T01:32:55.427Z,7.00
2017-04-16T01:33:55.735Z,7.00
2017-04-16T01:34:56.255Z,7.00
2017-04-16T01:35:56.559Z,7.00
2017-04-16T01:36:56.849Z,7.00
2017-04-16T01:37:56.435Z,7.00
2017-04-16T01:38:55.986Z,7.00
2017-04-16T01:39:56.254Z,7.00
2017-04-16T01:40:55.980Z,7.00
2017-04-16T01:41:55.615Z,7.00
2017-04-16T01:42:56.603Z,6.90
2017-04-16T01:43:56.259Z,6.90
2017-04-16T01:44:55.814Z,6.90
2017-04-16T01:45:55.403Z,6.90
2017-04-16T01:46:54.974Z,6.90
2017-04-16T01:47:54.562Z,6.90
2017-04-16T01:48:54.121Z,6.90
2017-04-16T01:49:54.811Z,6.80
2017-04-16T01:50:54.387Z,6.90
2017-04-16T01:51:53.996Z,6.90
2017-04-16T01:52:53.600Z,7.00
2017-04-16T01:53:53.159Z,6.90
2017-04-16T01:54:53.128Z,6.90
2017-04-16T01:55:52.661Z,7.00
2017-04-16T01:56:52.457Z,7.00
2017-04-16T01:57:52.071Z,6.90
2017-04-16T01:58:51.636Z,6.90
2017-04-16T01:59:52.031Z,6.90
2017-04-16T02:00:51.920Z,6.90
2017-04-16T02:01:51.481Z,6.90
2017-04-16T02:02:51.530Z,6.90
2017-04-16T02:03:51.099Z,6.90
2017-04-16T02:04:51.543Z,6.90
2017-04-16T02:05:51.129Z,7.00
2017-04-16T02:06:50.944Z,7.00
2017-04-16T02:07:50.890Z,7.00
2017-04-16T02:08:50.671Z,7.00
2017-04-16T02:09:50.311Z,7.10
2017-04-16T02:10:49.882Z,7.10
2017-04-16T02:11:50.243Z,7.00
2017-04-16T02:12:49.799Z,7.10
2017-04-16T02:13:49.379Z,7.10
2017-04-16T02:14:49.671Z,7.00
2017-04-16T02:15:49.570Z,7.10
2017-04-16T02:16:49.283Z,7.10
2017-04-16T02:17:49.211Z,7.20
2017-04-16T02:18:50.120Z,7.10
2017-04-16T02:20:49.479Z,7.10
2017-04-16T02:21:49.135Z,7.20
2017-04-16T02:22:49.178Z,7.10
2017-04-16T02:23:48.811Z,7.10
2017-04-16T02:24:48.473Z,7.20
2017-04-16T02:25:48.138Z,7.10
2017-04-16T02:26:48.835Z,7.00
2017-04-16T02:27:48.567Z,7.10
2017-04-16T02:28:48.852Z,7.00
2017-04-16T02:29:48.455Z,7.10
2017-04-16T02:30:48.171Z,7.10
2017-04-16T02:31:47.714Z,7.10
2017-04-16T02:32:47.251Z,7.10
2017-04-16T02:33:46.872Z,7.00
2017-04-16T02:34:47.168Z,6.90
2017-04-16T02:35:46.883Z,7.00
2017-04-16T02:36:47.299Z,6.90
2017-04-16T02:37:47.575Z,6.90
2017-04-16T02:38:47.152Z,6.90
2017-04-16T02:39:46.930Z,6.90
2017-04-16T02:40:46.595Z,6.90
2017-04-16T02:41:46.194Z,6.90
2017-04-16T02:42:45.744Z,6.80
2017-04-16T02:43:45.380Z,6.80
2017-04-16T02:44:44.937Z,6.80
2017-04-16T02:45:44.490Z,6.80
2017-04-16T02:46:44.114Z,6.80
2017-04-16T02:47:43.675Z,6.70
2017-04-16T02:48:43.471Z,6.70
2017-04-16T02:49:43.044Z,6.80
2017-04-16T02:50:42.599Z,6.80
2017-04-16T02:51:42.905Z,6.70
2017-04-16T02:52:43.200Z,6.70
2017-04-16T02:53:42.995Z,6.70
2017-04-16T02:54:43.615Z,6.70
2017-04-16T02:55:43.211Z,6.70
2017-04-16T02:56:42.755Z,6.60
2017-04-16T02:57:42.311Z,6.60
2017-04-16T02:58:42.907Z,6.60
2017-04-16T02:59:42.456Z,6.60
2017-04-16T03:00:42.738Z,6.50
2017-04-16T03:01:42.873Z,6.60
2017-04-16T03:02:43.172Z,6.60
2017-04-16T03:03:42.717Z,6.60
2017-04-16T03:04:44.423Z,6.50
2017-04-16T03:05:43.982Z,6.60
2017-04-16T03:06:43.524Z,6.60
2017-04-16T03:07:43.810Z,6.50
2017-04-16T03:08:43.463Z,6.50
2017-04-16T03:09:43.012Z,6.60
2017-04-16T03:10:42.627Z,6.60
2017-04-16T03:11:42.898Z,6.50
2017-04-16T03:12:43.515Z,6.60
2017-04-16T03:13:43.066Z,6.60
2017-04-16T03:14:43.361Z,6.50
2017-04-16T03:15:43.592Z,6.50
2017-04-16T03:16:44.086Z,6.50
2017-04-16T03:18:43.611Z,6.50
2017-04-16T03:19:43.923Z,6.40
2017-04-16T03:20:43.663Z,6.40
2017-04-16T03:21:43.217Z,6.50
2017-04-16T03:22:43.172Z,6.50
2017-04-16T03:23:42.740Z,6.50
2017-04-16T03:24:42.492Z,6.50
2017-04-16T03:25:42.307Z,6.50
2017-04-16T03:26:41.869Z,6.50
2017-04-16T03:27:41.616Z,6.50
2017-04-16T03:28:41.572Z,6.50
2017-04-16T03:29:41.187Z,6.50
2017-04-16T03:30:40.727Z,6.50
2017-04-16T03:31:41.003Z,6.50
2017-04-16T03:32:40.542Z,6.50
2017-04-16T03:33:41.001Z,6.50
2017-04-16T03:34:40.603Z,6.50
2017-04-16T03:35:40.635Z,6.50
2017-04-16T03:36:40.170Z,6.50
2017-04-16T03:37:40.563Z,6.40
2017-04-16T03:38:41.247Z,6.40
2017-04-16T03:39:40.843Z,6.50
2017-04-16T03:40:40.619Z,6.40
2017-04-16T03:41:40.163Z,6.40
2017-04-16T03:42:39.748Z,6.40
2017-04-16T03:43:39.634Z,6.40
2017-04-16T03:44:39.237Z,6.40
2017-04-16T03:45:38.773Z,6.40
2017-04-16T03:46:38.335Z,6.40
2017-04-16T03:47:37.979Z,6.40
2017-04-16T03:48:37.521Z,6.40
2017-04-16T03:49:37.064Z,6.40
2017-04-16T03:50:36.591Z,6.40
2017-04-16T03:51:36.155Z,6.40
2017-04-16T03:52:35.743Z,6.40
2017-04-16T03:53:35.316Z,6.40
2017-04-16T03:54:34.891Z,6.40
2017-04-16T03:55:34.459Z,6.40
2017-04-16T03:56:34.063Z,6.40
2017-04-16T03:57:34.388Z,6.40
2017-04-16T03:58:34.268Z,6.40
2017-04-16T03:59:33.795Z,6.40
2017-04-16T04:00:33.346Z,6.40
2017-04-16T04:01:32.947Z,6.40
2017-04-16T04:02:32.544Z,6.40
2017-04-16T04:03:32.247Z,6.40
2017-04-16T04:04:31.897Z,6.40
2017-04-16T04:05:31.559Z,6.40
2017-04-16T04:06:31.119Z,6.40
2017-04-16T04:07:30.711Z,6.40
2017-04-16T04:08:30.446Z,6.40
2017-04-16T04:09:30.036Z,6.40
2017-04-16T04:10:29.906Z,6.40
2017-04-16T04:11:29.580Z,6.40
2017-04-16T04:12:29.189Z,6.40
2017-04-16T04:13:29.412Z,6.40
2017-04-16T04:14:28.948Z,6.40
2017-04-16T04:15:28.486Z,6.40
2017-04-16T04:16:28.047Z,6.40
2017-04-16T04:17:27.608Z,6.40
2017-04-16T04:18:27.164Z,6.40
2017-04-16T04:19:26.735Z,6.40
2017-04-16T04:20:26.303Z,6.40
2017-04-16T04:21:25.866Z,6.40
2017-04-16T04:22:25.431Z,6.40
2017-04-16T04:23:25.022Z,6.40
2017-04-16T04:24:24.571Z,6.40
2017-04-16T04:25:24.171Z,6.40
2017-04-16T04:26:24.231Z,6.40
2017-04-16T04:27:23.786Z,6.40
2017-04-16T04:28:23.475Z,6.30
2017-04-16T04:29:23.123Z,6.30
2017-04-16T04:31:23.547Z,6.30
2017-04-16T04:32:23.614Z,6.30
2017-04-16T04:33:23.494Z,6.30
2017-04-16T04:34:23.051Z,6.30
2017-04-16T04:35:23.024Z,6.30
2017-04-16T04:36:22.804Z,6.30
2017-04-16T04:37:23.167Z,6.20
2017-04-16T04:38:22.756Z,6.30
2017-04-16T04:39:22.322Z,6.30
2017-04-16T04:40:21.883Z,6.30
2017-04-16T04:41:21.434Z,6.30
2017-04-16T04:42:21.020Z,6.30
2017-04-16T04:43:20.591Z,6.30
2017-04-16T04:44:20.895Z,6.30
2017-04-16T04:45:20.622Z,6.30
2017-04-16T04:46:20.278Z,6.30
2017-04-16T04:47:19.811Z,6.30
2017-04-16T04:48:19.479Z,6.30
2017-04-16T04:49:19.011Z,6.30
2017-04-16T04:50:18.543Z,6.30
2017-04-16T04:51:18.263Z,6.30
2017-04-16T04:52:17.896Z,6.30
2017-04-16T04:53:17.639Z,6.30
2017-04-16T04:54:17.198Z,6.30
2017-04-16T04:55:16.783Z,6.30
2017-04-16T04:56:16.406Z,6.40
2017-04-16T04:57:15.952Z,6.30
2017-04-16T04:58:16.191Z,6.40
2017-04-16T04:59:16.488Z,6.30
2017-04-16T05:00:16.407Z,6.40
2017-04-16T05:01:16.771Z,6.30
2017-04-16T05:02:16.375Z,6.40
2017-04-16T05:03:15.920Z,6.40
2017-04-16T05:04:15.608Z,6.30
2017-04-16T05:05:15.167Z,6.30
2017-04-16T05:06:14.709Z,6.30
2017-04-16T05:07:14.249Z,6.40
2017-04-16T05:08:13.762Z,6.40
2017-04-16T05:09:13.515Z,6.40
2017-04-16T05:10:13.987Z,6.40
2017-04-16T05:11:13.653Z,6.40
2017-04-16T05:12:13.187Z,6.40
2017-04-16T05:13:12.805Z,6.50
2017-04-16T05:14:12.348Z,6.50
2017-04-16T05:15:12.134Z,6.40
2017-04-16T05:16:11.700Z,6.50
2017-04-16T05:17:11.271Z,6.50
2017-04-16T05:18:10.991Z,6.50
2017-04-16T05:19:10.556Z,6.40
2017-04-16T05:20:10.213Z,6.40
2017-04-16T05:21:09.945Z,6.40
2017-04-16T05:22:09.499Z,6.40
2017-04-16T05:23:09.770Z,6.40
2017-04-16T05:24:09.383Z,6.40
2017-04-16T05:25:08.930Z,6.40
2017-04-16T05:26:08.487Z,6.50
2017-04-16T05:27:08.024Z,6.40
2017-04-16T05:28:07.708Z,6.50
2017-04-16T05:29:08.011Z,6.50
2017-04-16T05:30:08.252Z,6.60
2017-04-16T05:31:08.530Z,6.50
2017-04-16T05:32:08.080Z,6.60
2017-04-16T05:33:07.806Z,6.60
2017-04-16T05:34:07.336Z,6.60
2017-04-16T05:35:06.942Z,6.60
2017-04-16T05:36:07.258Z,6.60
2017-04-16T05:37:07.550Z,6.60
2017-04-16T05:38:07.476Z,6.70
2017-04-16T05:39:07.052Z,6.70
2017-04-16T05:40:07.344Z,6.70
2017-04-16T05:41:07.000Z,6.70
2017-04-16T05:42:06.563Z,6.70
2017-04-16T05:43:06.076Z,6.80
2017-04-16T05:44:06.527Z,6.70
2017-04-16T05:45:06.067Z,6.70
2017-04-16T05:46:05.927Z,6.70
2017-04-16T05:47:05.698Z,6.70
2017-04-16T05:48:06.099Z,6.60
2017-04-16T05:50:06.230Z,6.70
2017-04-16T05:51:06.457Z,6.70
2017-04-16T05:52:06.016Z,6.70
2017-04-16T05:53:05.604Z,6.70
2017-04-16T05:54:05.603Z,6.80
2017-04-16T05:55:05.139Z,6.80
2017-04-16T05:56:04.679Z,6.90
2017-04-16T05:57:04.353Z,6.90
2017-04-16T05:58:04.634Z,6.90
2017-04-16T05:59:04.216Z,6.90
2017-04-16T06:00:04.187Z,6.90
2017-04-16T06:01:03.727Z,6.90
2017-04-16T06:02:03.276Z,6.90
2017-04-16T06:03:02.878Z,6.90
2017-04-16T06:04:02.600Z,6.90
2017-04-16T06:05:02.385Z,6.90
2017-04-16T06:06:02.068Z,6.90
2017-04-16T06:07:02.362Z,6.90
2017-04-16T06:08:02.767Z,6.90
2017-04-16T06:09:02.626Z,7.00
2017-04-16T06:10:02.154Z,7.10
2017-04-16T06:11:01.887Z,7.10
2017-04-16T06:12:02.175Z,7.10
2017-04-16T06:13:01.751Z,7.20
2017-04-16T06:14:01.395Z,7.20
2017-04-16T06:15:01.678Z,7.20
2017-04-16T06:16:01.304Z,7.20
2017-04-16T06:17:01.587Z,7.20
2017-04-16T06:18:01.206Z,7.20
2017-04-16T06:19:00.755Z,7.20
2017-04-16T06:20:00.511Z,7.30
2017-04-16T06:21:00.999Z,7.20
2017-04-16T06:22:00.723Z,7.30
2017-04-16T06:23:00.435Z,7.30
2017-04-16T06:24:00.744Z,7.30
2017-04-16T06:25:00.467Z,7.40
2017-04-16T06:26:00.131Z,7.40
2017-04-16T06:26:59.675Z,7.40
2017-04-16T06:27:59.243Z,7.40
2017-04-16T06:28:59.060Z,7.40
2017-04-16T06:29:59.363Z,7.40
2017-04-16T06:30:59.655Z,7.40
2017-04-16T06:31:59.230Z,7.50
2017-04-16T06:32:58.812Z,7.60
2017-04-16T06:33:58.364Z,7.60
2017-04-16T06:34:57.920Z,7.60
2017-04-16T06:35:58.171Z,7.60
2017-04-16T06:36:58.514Z,7.50
2017-04-16T06:37:58.068Z,7.50
2017-04-16T06:38:57.716Z,7.40
2017-04-16T06:39:58.708Z,7.40
2017-04-16T06:40:58.379Z,7.40
2017-04-16T06:41:57.956Z,7.40
2017-04-16T06:42:57.553Z,7.40
2017-04-16T06:43:57.099Z,7.50
2017-04-16T06:44:56.672Z,7.50
2017-04-16T06:45:56.932Z,7.60
2017-04-16T06:46:56.490Z,7.70
2017-04-16T06:47:56.100Z,7.70
2017-04-16T06:48:55.711Z,7.70
2017-04-16T06:49:55.320Z,7.60
2017-04-16T06:50:54.958Z,7.70
2017-04-16T06:51:54.511Z,7.70
2017-04-16T06:52:54.107Z,7.70
2017-04-16T06:53:53.655Z,7.60
2017-04-16T06:54:53.225Z,7.70
2017-04-16T06:55:52.791Z,7.70
2017-04-16T06:56:52.335Z,7.70
2017-04-16T06:57:51.887Z,7.70
2017-04-16T06:58:51.852Z,7.60
2017-04-16T06:59:51.383Z,7.60
2017-04-16T07:00:51.043Z,7.60
2017-04-16T07:01:50.587Z,7.50
2017-04-16T07:02:50.223Z,7.50
2017-04-16T07:03:57.100Z,7.60
2017-04-16T07:04:56.843Z,7.50
2017-04-16T07:05:57.142Z,7.60
2017-04-16T07:06:56.695Z,7.60
2017-04-16T07:07:56.875Z,7.60
2017-04-16T07:08:56.429Z,7.70
2017-04-16T07:09:56.135Z,7.70
2017-04-16T07:10:55.699Z,7.70
2017-04-16T07:11:55.291Z,7.70
2017-04-16T07:12:54.842Z,7.70
2017-04-16T07:13:54.439Z,7.60
2017-04-16T07:14:54.007Z,7.60
2017-04-16T07:15:53.639Z,7.60
2017-04-16T07:16:53.267Z,7.60
2017-04-16T07:17:52.920Z,7.60
2017-04-16T07:18:52.607Z,7.70
2017-04-16T07:19:52.196Z,7.70
2017-04-16T07:20:51.799Z,7.70
2017-04-16T07:21:52.023Z,7.80
2017-04-16T07:22:51.607Z,7.80
2017-04-16T07:23:51.228Z,7.80
2017-04-16T07:24:50.789Z,7.80
2017-04-16T07:25:51.023Z,7.80
2017-04-16T07:26:50.535Z,7.80
2017-04-16T07:27:50.102Z,7.90
2017-04-16T07:28:49.670Z,7.80
2017-04-16T07:29:49.259Z,7.80
2017-04-16T07:30:48.820Z,7.80
2017-04-16T07:31:48.477Z,7.80
2017-04-16T07:32:48.190Z,7.80
2017-04-16T07:33:47.764Z,7.80
2017-04-16T07:34:47.359Z,7.80
2017-04-16T07:35:46.915Z,7.80
2017-04-16T07:36:46.476Z,7.80
2017-04-16T07:37:46.050Z,7.80
2017-04-16T07:38:45.591Z,7.80
2017-04-16T07:39:45.179Z,7.80
2017-04-16T07:40:44.926Z,7.70
2017-04-16T07:41:44.476Z,7.80
2017-04-16T07:42:44.016Z,7.80
2017-04-16T07:43:43.552Z,7.80
2017-04-16T07:44:43.198Z,7.90
2017-04-16T07:45:42.791Z,7.80
2017-04-16T07:46:42.336Z,7.80
2017-04-16T07:47:41.903Z,7.80
2017-04-16T07:48:41.484Z,7.90
2017-04-16T07:49:41.106Z,8.00
2017-04-16T07:50:41.492Z,8.00
2017-04-16T07:51:41.113Z,8.10
2017-04-16T07:52:40.638Z,8.20
2017-04-16T07:53:40.364Z,8.30
2017-04-16T07:54:40.618Z,8.30
2017-04-16T07:55:40.347Z,8.20
2017-04-16T07:56:39.887Z,8.20
2017-04-16T07:57:39.457Z,8.20
2017-04-16T07:58:39.104Z,8.10
2017-04-16T07:59:38.926Z,8.20
2017-04-16T08:00:38.631Z,8.70
2017-04-16T08:01:38.250Z,8.10
2017-04-16T08:02:37.804Z,8.20
2017-04-16T08:03:37.367Z,8.30
2017-04-16T08:04:37.047Z,8.30
2017-04-16T08:05:36.659Z,8.40
2017-04-16T08:06:36.324Z,8.50
2017-04-16T08:07:35.902Z,8.60
2017-04-16T08:08:35.475Z,8.70
2017-04-16T08:09:35.107Z,8.70
2017-04-16T08:10:34.660Z,8.70
2017-04-16T08:11:34.532Z,8.60
2017-04-16T08:12:34.107Z,8.50
2017-04-16T08:13:33.659Z,8.50
2017-04-16T08:14:33.275Z,8.50
2017-04-16T08:15:32.864Z,8.50
2017-04-16T08:16:32.494Z,8.40
2017-04-16T08:17:32.090Z,8.50
2017-04-16T08:18:31.655Z,8.50
2017-04-16T08:19:31.243Z,8.60
2017-04-16T08:20:30.847Z,8.60
2017-04-16T08:21:30.455Z,8.80
2017-04-16T08:22:30.007Z,9.00
2017-04-16T08:23:29.662Z,9.00
2017-04-16T08:24:29.278Z,9.00
2017-04-16T08:25:29.003Z,9.00
2017-04-16T08:26:28.607Z,9.10
2017-04-16T08:27:28.162Z,9.10
2017-04-16T08:28:27.799Z,9.20
2017-04-16T08:29:27.387Z,9.30
2017-04-16T08:30:27.030Z,9.30
2017-04-16T08:31:26.638Z,9.40
2017-04-16T08:32:26.195Z,9.30
2017-04-16T08:33:25.730Z,9.20
2017-04-16T08:34:25.293Z,9.20
2017-04-16T08:35:24.943Z,9.20
2017-04-16T08:36:24.497Z,9.10
2017-04-16T08:37:24.040Z,9.20
2017-04-16T08:38:23.779Z,9.20
2017-04-16T08:39:23.322Z,9.30
2017-04-16T08:40:22.951Z,9.30
2017-04-16T08:41:23.371Z,9.20
2017-04-16T08:42:23.728Z,9.20
2017-04-16T08:43:23.324Z,9.20
2017-04-16T08:44:22.877Z,9.10
2017-04-16T08:45:22.474Z,9.10
2017-04-16T08:46:22.027Z,9.10
2017-04-16T08:47:21.608Z,9.20
2017-04-16T08:48:21.176Z,9.10
2017-04-16T08:49:21.548Z,9.20
2017-04-16T08:50:21.107Z,9.40
2017-04-16T08:51:20.699Z,9.40
2017-04-16T08:52:20.272Z,9.50
2017-04-16T08:53:19.811Z,9.50
2017-04-16T08:54:19.372Z,9.40
2017-04-16T08:55:19.067Z,9.50
2017-04-16T08:56:19.538Z,9.60
2017-04-16T08:57:19.487Z,9.60
2017-04-16T08:58:19.043Z,9.50
2017-04-16T08:59:18.615Z,9.70
2017-04-16T09:00:18.168Z,9.80
2017-04-16T09:01:17.739Z,9.70
2017-04-16T09:02:17.283Z,9.60
2017-04-16T09:03:16.846Z,9.70
2017-04-16T09:04:16.465Z,9.80
2017-04-16T09:05:16.002Z,9.90
2017-04-16T09:06:15.549Z,9.90
2017-04-16T09:07:15.136Z,10.00
2017-04-16T09:08:14.745Z,10.10
2017-04-16T09:09:15.001Z,10.10
2017-04-16T09:10:14.699Z,10.00
2017-04-16T09:11:14.236Z,9.90
2017-04-16T09:12:13.992Z,9.80
2017-04-16T09:13:13.823Z,9.80
2017-04-16T09:14:13.424Z,9.80
2017-04-16T09:15:12.943Z,9.90
2017-04-16T09:16:12.555Z,10.00
2017-04-16T09:17:12.143Z,10.00
2017-04-16T09:18:11.699Z,10.00
2017-04-16T09:19:11.233Z,9.90
2017-04-16T09:20:10.837Z,10.00
2017-04-16T09:21:10.395Z,10.10
2017-04-16T09:22:09.958Z,10.00
2017-04-16T09:23:09.583Z,10.00
2017-04-16T09:24:09.147Z,10.10
2017-04-16T09:25:08.802Z,10.10
2017-04-16T09:26:08.528Z,10.20
2017-04-16T09:27:08.064Z,10.30
2017-04-16T09:28:07.655Z,10.20
2017-04-16T09:29:07.195Z,10.30
2017-04-16T09:30:06.750Z,10.30
2017-04-16T09:31:06.323Z,10.30
2017-04-16T09:32:05.934Z,10.30
2017-04-16T09:33:05.531Z,10.40
2017-04-16T09:34:05.212Z,10.30
2017-04-16T09:35:04.840Z,10.40
2017-04-16T09:36:04.748Z,10.30
2017-04-16T09:37:04.378Z,10.20
2017-04-16T09:38:04.148Z,10.00
2017-04-16T09:39:03.807Z,10.20
2017-04-16T09:40:04.099Z,10.30
2017-04-16T09:41:03.632Z,10.50
2017-04-16T09:42:03.186Z,10.50
2017-04-16T09:43:02.982Z,10.50
2017-04-16T09:44:02.699Z,10.50
2017-04-16T09:45:02.287Z,10.30
2017-04-16T09:46:01.952Z,10.50
2017-04-16T09:47:01.503Z,10.60
2017-04-16T09:48:01.131Z,10.60
2017-04-16T09:49:01.450Z,10.60
2017-04-16T09:50:01.104Z,10.60
2017-04-16T09:51:00.698Z,10.70
2017-04-16T09:52:00.328Z,10.80
2017-04-16T09:52:59.888Z,10.90
2017-04-16T09:53:59.448Z,10.80
2017-04-16T09:54:59.066Z,11.00
2017-04-16T09:55:58.633Z,10.70
2017-04-16T09:56:58.182Z,10.70
2017-04-16T09:57:57.783Z,10.80
2017-04-16T09:58:58.020Z,10.70
2017-04-16T09:59:57.554Z,10.80
2017-04-16T10:00:57.278Z,10.80
2017-04-16T10:01:56.908Z,10.60
2017-04-16T10:02:56.770Z,10.70
2017-04-16T10:03:56.320Z,10.80
2017-04-16T10:04:55.927Z,10.90
2017-04-16T10:05:55.522Z,11.00
2017-04-16T10:06:55.131Z,10.90
2017-04-16T10:07:54.816Z,10.80
2017-04-16T10:08:54.383Z,10.80
2017-04-16T10:09:53.940Z,10.90
2017-04-16T10:10:53.535Z,10.80
2017-04-16T10:11:53.120Z,10.80
2017-04-16T10:12:53.515Z,10.80
2017-04-16T10:13:53.117Z,11.00
2017-04-16T10:14:52.706Z,11.00
2017-04-16T10:15:52.360Z,10.90
2017-04-16T10:16:51.916Z,10.80
2017-04-16T10:17:51.744Z,10.70
2017-04-16T10:18:51.336Z,10.60
2017-04-16T10:19:51.600Z,10.60
2017-04-16T10:20:51.145Z,10.50
2017-04-16T10:21:51.569Z,10.40
2017-04-16T10:22:51.128Z,10.10
2017-04-16T10:23:50.723Z,10.00
2017-04-16T10:24:50.347Z,10.00
2017-04-16T10:25:50.668Z,10.10
2017-04-16T10:26:50.817Z,10.10
2017-04-16T10:27:50.368Z,10.00
2017-04-16T10:28:50.284Z,10.20
2017-04-16T10:29:49.883Z,10.30
2017-04-16T10:30:49.481Z,10.60
2017-04-16T10:31:49.047Z,10.70
2017-04-16T10:32:48.607Z,10.80
2017-04-16T10:33:48.246Z,10.80
2017-04-16T10:34:47.892Z,10.70
2017-04-16T10:35:47.552Z,10.80
2017-04-16T10:36:47.105Z,10.90
2017-04-16T10:37:46.738Z,10.70
2017-04-16T10:38:46.324Z,10.80
2017-04-16T10:39:46.711Z,11.00
2017-04-16T10:40:46.281Z,11.10
2017-04-16T10:41:46.739Z,11.30
2017-04-16T10:42:46.424Z,11.20
2017-04-16T10:43:46.049Z,11.30
2017-04-16T10:44:45.632Z,11.10
2017-04-16T10:45:45.572Z,11.30
2017-04-16T10:46:45.175Z,11.40
2017-04-16T10:47:44.819Z,11.60
2017-04-16T10:48:44.815Z,11.80
2017-04-16T10:49:44.360Z,11.90
2017-04-16T10:50:44.089Z,11.90
2017-04-16T10:51:44.339Z,11.80
2017-04-16T10:52:43.950Z,12.00
2017-04-16T10:53:43.546Z,12.00
2017-04-16T10:54:43.357Z,11.70
2017-04-16T10:55:42.903Z,11.60
2017-04-16T10:56:42.455Z,11.60
2017-04-16T10:57:42.292Z,11.70
2017-04-16T10:58:41.827Z,11.90
2017-04-16T10:59:41.487Z,12.00
2017-04-16T11:00:41.223Z,12.00
2017-04-16T11:01:40.792Z,12.00
2017-04-16T11:02:40.340Z,11.60
2017-04-16T11:03:40.272Z,11.60
2017-04-16T11:04:39.831Z,11.80
2017-04-16T11:05:39.371Z,11.90
2017-04-16T11:06:38.919Z,11.90
2017-04-16T11:07:38.509Z,11.90
2017-04-16T11:08:38.086Z,11.90
2017-04-16T11:09:37.715Z,12.00
2017-04-16T11:10:37.256Z,11.90
2017-04-16T11:11:36.839Z,11.80
2017-04-16T11:12:36.532Z,11.80
2017-04-16T11:13:36.095Z,12.00
2017-04-16T11:14:35.645Z,11.70
2017-04-16T11:15:35.272Z,11.70
2017-04-16T11:16:34.841Z,11.50
2017-04-16T11:17:34.368Z,11.30
2017-04-16T11:18:33.926Z,11.20
2017-04-16T11:19:33.963Z,11.40
2017-04-16T11:20:33.499Z,11.50
2017-04-16T11:21:33.070Z,11.50
2017-04-16T11:22:32.628Z,11.70
2017-04-16T11:23:32.258Z,11.90
2017-04-16T11:24:31.852Z,12.10
2017-04-16T11:25:31.430Z,12.00
2017-04-16T11:26:30.986Z,12.10
2017-04-16T11:27:30.605Z,12.10
2017-04-16T11:28:30.176Z,11.90
2017-04-16T11:29:29.854Z,11.90
2017-04-16T11:30:30.148Z,11.90
2017-04-16T11:31:30.487Z,11.80
2017-04-16T11:32:30.775Z,12.00
2017-04-16T11:33:30.419Z,12.10
2017-04-16T11:34:29.992Z,12.20
2017-04-16T11:35:29.567Z,12.30
2017-04-16T11:36:29.219Z,12.20
2017-04-16T11:37:28.939Z,11.90
2017-04-16T11:38:28.919Z,11.90
2017-04-16T11:39:28.463Z,12.00
2017-04-16T11:40:28.699Z,11.90
2017-04-16T11:41:28.725Z,11.90
2017-04-16T11:42:28.315Z,11.90
2017-04-16T11:43:27.863Z,12.00
2017-04-16T11:44:27.512Z,12.10
2017-04-16T11:45:27.295Z,11.90
2017-04-16T11:46:27.607Z,11.80
2017-04-16T11:47:27.234Z,11.80
2017-04-16T11:48:27.161Z,11.90
2017-04-16T11:49:27.463Z,12.10
2017-04-16T11:50:27.072Z,12.20
2017-04-16T11:51:26.671Z,12.20
2017-04-16T11:52:26.279Z,12.10
2017-04-16T11:53:25.900Z,12.20
2017-04-16T11:54:25.476Z,12.10
2017-04-16T11:55:25.163Z,12.10
2017-04-16T11:56:24.795Z,11.70
2017-04-16T11:57:24.462Z,11.60
2017-04-16T11:58:24.002Z,11.40
2017-04-16T11:59:23.603Z,11.30
2017-04-16T12:00:23.203Z,11.30
2017-04-16T12:01:22.818Z,11.50
2017-04-16T12:02:22.345Z,11.70
2017-04-16T12:03:22.810Z,11.90
2017-04-16T12:04:22.372Z,11.90
2017-04-16T12:05:21.960Z,12.00
2017-04-16T12:06:21.480Z,12.10
2017-04-16T12:07:21.070Z,12.10
2017-04-16T12:08:20.584Z,12.00
2017-04-16T12:09:20.138Z,12.10
2017-04-16T12:10:19.791Z,12.20
2017-04-16T12:11:19.471Z,12.30
2017-04-16T12:12:19.059Z,12.20
2017-04-16T12:13:18.663Z,12.30
2017-04-16T12:14:18.227Z,12.40
2017-04-16T12:15:17.775Z,12.00
2017-04-16T12:16:17.367Z,12.10
2017-04-16T12:17:16.945Z,12.20
2017-04-16T12:18:17.201Z,12.10
2017-04-16T12:19:16.858Z,12.10
2017-04-16T12:20:16.431Z,12.20
2017-04-16T12:21:15.970Z,12.20
2017-04-16T12:22:15.551Z,12.40
2017-04-16T12:23:15.184Z,12.10
2017-04-16T12:24:14.764Z,12.00
2017-04-16T12:25:14.366Z,11.70
2017-04-16T12:26:13.914Z,11.60
2017-04-16T12:27:13.411Z,11.60
2017-04-16T12:28:13.067Z,11.50
2017-04-16T12:29:13.418Z,11.50
2017-04-16T12:30:13.103Z,11.30
2017-04-16T12:31:13.484Z,10.90
2017-04-16T12:32:13.182Z,10.50
2017-04-16T12:33:12.711Z,10.00
2017-04-16T12:34:15.089Z,9.30
2017-04-16T12:35:16.278Z,9.00
2017-04-16T12:36:17.270Z,8.90
2017-04-16T12:37:16.988Z,8.70
2017-04-16T12:38:16.575Z,8.40
2017-04-16T12:39:16.828Z,8.30
2017-04-16T12:40:16.096Z,8.20
2017-04-16T12:41:15.619Z,8.30
2017-04-16T12:42:16.761Z,8.30
2017-04-16T12:43:17.843Z,8.30
2017-04-16T12:44:18.949Z,8.30
2017-04-16T12:45:20.287Z,8.30
2017-04-16T12:46:22.497Z,8.30
2017-04-16T12:47:23.514Z,8.30
2017-04-16T12:48:24.642Z,8.20
2017-04-16T12:49:26.657Z,8.20
2017-04-16T12:50:28.113Z,8.10
2017-04-16T12:51:29.794Z,10.60
2017-04-16T12:52:31.158Z,8.20
2017-04-16T12:53:32.751Z,8.30
2017-04-16T12:54:34.187Z,8.20
2017-04-16T12:55:35.623Z,8.20
2017-04-16T12:56:36.694Z,8.20
2017-04-16T12:57:37.662Z,8.30
2017-04-16T12:58:41.150Z,8.50
2017-04-16T12:59:45.817Z,8.70
2017-04-16T13:00:45.454Z,8.70
2017-04-16T13:01:45.067Z,8.80
2017-04-16T13:02:44.633Z,8.50
2017-04-16T13:03:44.154Z,8.50
2017-04-16T13:04:43.833Z,8.50
2017-04-16T13:05:43.376Z,8.50
2017-04-16T13:06:42.879Z,8.50
2017-04-16T13:07:42.427Z,8.40
2017-04-16T13:08:42.010Z,8.60
2017-04-16T13:09:41.639Z,8.50
2017-04-16T13:10:41.150Z,8.60
2017-04-16T13:11:40.718Z,8.50
2017-04-16T13:12:40.260Z,8.50
2017-04-16T13:13:39.810Z,8.40